createdAt,value
2019-05-20T00:00:13.079Z,78.74
2019-05-20T00:02:41.690Z,78.79
2019-05-20T00:05:11.032Z,78.85
2019-05-20T00:07:40.374Z,78.84
2019-05-20T00:10:10.770Z,78.93
2019-05-20T00:12:40.136Z,79.04
2019-05-20T00:15:10.086Z,78.86
2019-05-20T00:17:39.507Z,79.03
2019-05-20T00:20:09.208Z,78.80
2019-05-20T00:22:38.815Z,78.88
2019-05-20T00:25:08.400Z,78.98
2019-05-20T00:27:38.037Z,79.12
2019-05-20T00:30:08.011Z,79.20
2019-05-20T00:32:42.099Z,79.31
2019-05-20T00:35:08.800Z,79.67
2019-05-20T00:37:38.411Z,79.76
2019-05-20T00:40:08.595Z,80.12
2019-05-20T00:42:37.932Z,80.02
2019-05-20T00:45:09.283Z,79.87
2019-05-20T00:47:38.624Z,80.27
2019-05-20T00:50:08.238Z,80.39
2019-05-20T00:52:37.642Z,80.47
2019-05-20T00:55:08.560Z,80.46
2019-05-20T00:57:37.966Z,80.67
2019-05-20T01:00:08.475Z,80.72
2019-05-20T01:02:37.983Z,81.32
2019-05-20T01:05:07.663Z,81.00
2019-05-20T01:07:37.003Z,81.12
2019-05-20T01:10:07.189Z,81.39
2019-05-20T01:12:36.762Z,81.59
2019-05-20T01:15:06.857Z,81.89
2019-05-20T01:17:36.199Z,81.75
2019-05-20T01:20:06.983Z,82.10
2019-05-20T01:22:36.589Z,82.15
2019-05-20T01:25:06.271Z,82.82
2019-05-20T01:27:35.609Z,82.96
2019-05-20T01:30:09.997Z,83.72
2019-05-20T01:32:39.334Z,84.09
2019-05-20T01:35:08.818Z,83.76
2019-05-20T01:37:38.155Z,84.01
2019-05-20T01:40:07.949Z,84.21
2019-05-20T01:42:37.282Z,84.11
2019-05-20T01:45:07.139Z,84.22
2019-05-20T01:47:36.768Z,84.10
2019-05-20T01:50:06.968Z,84.37
2019-05-20T01:52:36.304Z,84.55
2019-05-20T01:55:07.799Z,84.51
2019-05-20T01:57:37.143Z,84.38
2019-05-20T02:00:10.712Z,84.26
2019-05-20T02:02:39.615Z,83.84
2019-05-20T02:05:10.452Z,83.69
2019-05-20T02:07:39.797Z,83.84
2019-05-20T02:10:09.703Z,83.94
2019-05-20T02:12:39.042Z,83.97
2019-05-20T02:15:11.373Z,83.94
2019-05-20T02:17:40.778Z,84.03
2019-05-20T02:20:10.875Z,83.89
2019-05-20T02:22:40.514Z,83.92
2019-05-20T02:25:10.239Z,83.72
2019-05-20T02:27:39.580Z,83.58
2019-05-20T02:30:10.578Z,83.50
2019-05-20T02:32:39.903Z,83.46
2019-05-20T02:35:09.883Z,83.44
2019-05-20T02:37:39.249Z,83.19
2019-05-20T02:40:09.330Z,83.04
2019-05-20T02:42:38.825Z,82.96
2019-05-20T02:45:08.814Z,82.91
2019-05-20T02:47:38.157Z,82.81
2019-05-20T02:50:07.887Z,82.87
2019-05-20T02:52:37.215Z,82.85
2019-05-20T02:55:07.686Z,82.86
2019-05-20T02:57:37.031Z,82.88
2019-05-20T03:00:08.547Z,82.94
2019-05-20T03:02:38.144Z,82.83
2019-05-20T03:05:08.595Z,82.68
2019-05-20T03:07:37.940Z,82.67
2019-05-20T03:10:07.422Z,82.67
2019-05-20T03:12:36.791Z,82.59
2019-05-20T03:15:07.822Z,82.72
2019-05-20T03:17:37.162Z,82.53
2019-05-20T03:20:07.050Z,82.51
2019-05-20T03:22:36.393Z,82.50
2019-05-20T03:25:07.740Z,82.37
2019-05-20T03:27:37.092Z,82.20
2019-05-20T03:30:07.473Z,82.19
2019-05-20T03:32:36.844Z,82.07
2019-05-20T03:35:07.955Z,82.03
2019-05-20T03:37:37.383Z,82.37
2019-05-20T03:40:07.950Z,82.16
2019-05-20T03:42:37.305Z,82.12
2019-05-20T03:45:06.784Z,82.20
2019-05-20T03:47:36.140Z,82.31
2019-05-20T03:50:07.433Z,82.28
2019-05-20T03:52:36.771Z,82.03
2019-05-20T03:55:09.282Z,82.10
2019-05-20T03:57:38.621Z,82.22
2019-05-20T04:00:09.106Z,82.16
2019-05-20T04:02:38.457Z,81.99
2019-05-20T04:05:07.951Z,82.14
2019-05-20T04:07:37.281Z,82.05
2019-05-20T04:10:07.093Z,82.01
2019-05-20T04:12:36.420Z,82.02
2019-05-20T04:15:06.390Z,81.85
2019-05-20T04:17:35.761Z,81.82
2019-05-20T04:20:07.222Z,81.70
2019-05-20T04:22:36.578Z,81.64
2019-05-20T04:25:07.177Z,81.53
2019-05-20T04:27:36.604Z,81.54
2019-05-20T04:30:07.669Z,81.53
2019-05-20T04:32:37.363Z,81.39
2019-05-20T04:35:21.227Z,81.08
2019-05-20T04:37:38.316Z,81.06
2019-05-20T04:40:09.586Z,81.10
2019-05-20T04:42:38.950Z,81.19
2019-05-20T04:45:08.920Z,81.09
2019-05-20T04:47:38.260Z,81.05
2019-05-20T04:50:09.120Z,80.75
2019-05-20T04:52:38.449Z,80.76
2019-05-20T04:55:08.032Z,80.54
2019-05-20T04:57:37.381Z,80.52
2019-05-20T05:00:09.076Z,80.49
2019-05-20T05:02:38.398Z,80.40
2019-05-20T05:05:08.478Z,80.36
2019-05-20T05:07:37.883Z,80.35
2019-05-20T05:10:08.316Z,80.22
2019-05-20T05:12:37.610Z,80.21
2019-05-20T05:15:08.870Z,80.11
2019-05-20T05:17:38.227Z,80.15
2019-05-20T05:20:16.921Z,80.12
2019-05-20T05:22:40.190Z,80.18
2019-05-20T05:25:09.775Z,79.94
2019-05-20T05:27:39.119Z,79.68
2019-05-20T05:30:08.902Z,79.48
2019-05-20T05:32:41.294Z,79.34
2019-05-20T05:35:13.319Z,79.39
2019-05-20T05:37:42.728Z,79.30
2019-05-20T05:40:14.521Z,79.12
2019-05-20T05:42:43.871Z,79.22
2019-05-20T05:45:13.937Z,79.41
2019-05-20T05:47:43.542Z,79.54
2019-05-20T05:50:12.946Z,79.59
2019-05-20T05:52:42.285Z,79.46
2019-05-20T05:55:11.864Z,79.15
2019-05-20T05:57:42.170Z,79.20
2019-05-20T06:00:11.692Z,79.10
2019-05-20T06:02:41.284Z,79.24
2019-05-20T06:05:11.421Z,79.11
2019-05-20T06:07:40.758Z,78.85
2019-05-20T06:10:10.245Z,78.82
2019-05-20T06:12:39.615Z,78.75
2019-05-20T06:15:09.594Z,78.71
2019-05-20T06:17:38.953Z,78.70
2019-05-20T06:20:09.129Z,78.71
2019-05-20T06:22:38.459Z,78.74
2019-05-20T06:25:09.949Z,78.35
2019-05-20T06:27:40.357Z,78.26
2019-05-20T06:30:14.254Z,78.05
2019-05-20T06:32:43.604Z,78.02
2019-05-20T06:35:13.887Z,77.87
2019-05-20T06:37:50.542Z,77.75
2019-05-20T06:40:19.993Z,77.37
2019-05-20T06:42:49.354Z,77.25
2019-05-20T06:45:18.740Z,77.09
2019-05-20T06:47:48.091Z,77.18
2019-05-20T06:50:17.504Z,77.50
2019-05-20T06:52:46.859Z,77.46
2019-05-20T06:55:16.339Z,77.04
2019-05-20T06:57:45.678Z,77.04
2019-05-20T07:00:18.076Z,77.04
2019-05-20T07:02:47.430Z,76.74
2019-05-20T07:05:16.899Z,76.87
2019-05-20T07:07:46.252Z,76.82
2019-05-20T07:10:15.661Z,76.81
2019-05-20T07:12:45.006Z,76.62
2019-05-20T07:15:14.805Z,76.63
2019-05-20T07:17:44.104Z,76.71
2019-05-20T07:20:13.584Z,76.73
2019-05-20T07:22:55.318Z,76.57
2019-05-20T07:25:15.156Z,76.47
2019-05-20T07:27:44.579Z,76.00
2019-05-20T07:30:16.299Z,76.07
2019-05-20T07:32:45.637Z,76.40
2019-05-20T07:35:28.911Z,75.99
2019-05-20T07:37:46.102Z,75.77
2019-05-20T07:40:19.552Z,75.55
2019-05-20T07:42:48.894Z,75.98
2019-05-20T07:45:18.238Z,75.84
2019-05-20T07:47:47.707Z,75.76
2019-05-20T07:50:17.900Z,76.06
2019-05-20T07:52:47.417Z,76.05
2019-05-20T07:55:18.275Z,75.70
2019-05-20T07:57:50.204Z,75.32
2019-05-20T08:00:19.634Z,75.27
2019-05-20T08:02:49.034Z,74.96
2019-05-20T08:05:18.438Z,75.09
2019-05-20T08:07:52.398Z,75.09
2019-05-20T08:10:19.857Z,75.39
2019-05-20T08:12:49.279Z,74.95
2019-05-20T08:15:18.818Z,75.21
2019-05-20T08:17:48.176Z,75.22
2019-05-20T08:20:18.653Z,75.12
2019-05-20T08:22:48.341Z,75.02
2019-05-20T08:25:17.913Z,74.76
2019-05-20T08:27:47.341Z,74.85
2019-05-20T08:30:19.734Z,75.01
2019-05-20T08:32:49.113Z,74.87
2019-05-20T08:35:18.464Z,74.76
2019-05-20T08:37:47.787Z,74.46
2019-05-20T08:40:17.171Z,74.44
2019-05-20T08:42:46.572Z,74.28
2019-05-20T08:45:16.257Z,74.17
2019-05-20T08:47:45.593Z,74.01
2019-05-20T08:50:16.381Z,74.09
2019-05-20T08:52:45.806Z,74.32
2019-05-20T08:55:15.396Z,73.80
2019-05-20T08:57:44.804Z,73.66
2019-05-20T09:00:23.662Z,73.86
2019-05-20T09:02:53.365Z,74.14
2019-05-20T09:05:23.686Z,73.48
2019-05-20T09:08:02.803Z,73.91
2019-05-20T09:10:24.231Z,73.74
2019-05-20T09:12:53.924Z,73.14
2019-05-20T09:15:23.676Z,72.89
2019-05-20T09:17:53.059Z,73.19
2019-05-20T09:20:22.806Z,73.09
2019-05-20T09:22:52.231Z,72.82
2019-05-20T09:25:29.911Z,72.42
2019-05-20T09:28:00.084Z,72.13
2019-05-20T09:30:29.414Z,72.40
2019-05-20T09:32:58.827Z,71.82
2019-05-20T09:35:28.240Z,71.94
2019-05-20T09:37:57.553Z,71.57
2019-05-20T09:40:38.090Z,71.51
2019-05-20T09:43:08.119Z,71.34
2019-05-20T09:45:37.730Z,70.89
2019-05-20T09:48:07.784Z,71.56
2019-05-20T09:50:37.391Z,72.06
2019-05-20T09:53:07.778Z,72.13
2019-05-20T09:55:38.372Z,71.73
2019-05-20T09:58:08.178Z,71.32
2019-05-20T10:00:37.624Z,70.81
2019-05-20T10:03:07.731Z,70.36
2019-05-20T10:05:37.880Z,71.35
2019-05-20T10:08:08.369Z,70.92
2019-05-20T10:10:37.712Z,70.63
2019-05-20T10:13:07.988Z,70.52
2019-05-20T10:15:37.909Z,69.85
2019-05-20T10:18:08.320Z,69.64
2019-05-20T10:20:37.680Z,69.25
2019-05-20T10:23:07.037Z,69.57
2019-05-20T10:25:36.410Z,69.39
2019-05-20T10:28:05.763Z,68.95
2019-05-20T10:30:35.098Z,69.06
2019-05-20T10:33:09.151Z,69.32
2019-05-20T10:35:35.735Z,69.17
2019-05-20T10:38:06.020Z,69.81
2019-05-20T10:40:35.359Z,69.62
2019-05-20T10:43:04.772Z,69.09
2019-05-20T10:45:34.402Z,68.64
2019-05-20T10:48:04.026Z,68.71
2019-05-20T10:50:33.353Z,68.50
2019-05-20T10:53:02.704Z,68.17
2019-05-20T10:55:32.174Z,68.34
2019-05-20T10:58:01.991Z,68.27
2019-05-20T11:00:31.322Z,68.27
2019-05-20T11:03:00.685Z,67.83
2019-05-20T11:05:30.012Z,67.97
2019-05-20T11:07:59.351Z,68.04
2019-05-20T11:10:28.685Z,68.21
2019-05-20T11:12:58.021Z,68.24
2019-05-20T11:15:27.407Z,68.48
2019-05-20T11:17:56.974Z,68.59
2019-05-20T11:20:26.437Z,68.98
2019-05-20T11:22:55.764Z,69.36
2019-05-20T11:25:25.136Z,68.97
2019-05-20T11:27:54.468Z,69.00
2019-05-20T11:30:23.870Z,69.02
2019-05-20T11:32:53.281Z,69.24
2019-05-20T11:35:22.622Z,69.50
2019-05-20T11:37:51.961Z,69.40
2019-05-20T11:40:21.446Z,69.48
2019-05-20T11:42:50.792Z,69.43
2019-05-20T11:45:20.202Z,69.47
2019-05-20T11:47:49.543Z,69.46
2019-05-20T11:50:19.141Z,69.63
2019-05-20T11:52:48.504Z,69.94
2019-05-20T11:55:18.132Z,70.05
2019-05-20T11:57:47.538Z,69.90
2019-05-20T12:00:17.200Z,70.11
2019-05-20T12:02:46.544Z,69.98
2019-05-20T12:05:16.119Z,69.98
2019-05-20T12:07:45.460Z,69.79
2019-05-20T12:10:16.047Z,69.38
2019-05-20T12:12:46.199Z,69.42
2019-05-20T12:15:15.891Z,69.74
2019-05-20T12:17:45.234Z,69.99
2019-05-20T12:20:14.921Z,69.90
2019-05-20T12:22:44.272Z,69.10
2019-05-20T12:25:14.057Z,69.11
2019-05-20T12:27:43.484Z,68.92
2019-05-20T12:30:13.379Z,69.00
2019-05-20T12:32:42.711Z,69.12
2019-05-20T12:35:12.400Z,68.75
2019-05-20T12:37:45.361Z,68.20
2019-05-20T12:40:13.355Z,68.34
2019-05-20T12:42:42.684Z,68.28
2019-05-20T12:45:12.461Z,68.04
2019-05-20T12:47:41.907Z,68.08
2019-05-20T12:50:11.682Z,67.88
2019-05-20T12:52:41.245Z,68.13
2019-05-20T12:55:10.860Z,68.14
2019-05-20T12:57:40.218Z,68.05
2019-05-20T13:00:12.223Z,68.30
2019-05-20T13:02:43.107Z,68.18
2019-05-20T13:05:13.008Z,68.78
2019-05-20T13:07:42.351Z,68.34
2019-05-20T13:10:27.987Z,68.33
2019-05-20T13:12:44.722Z,67.87
2019-05-20T13:15:16.204Z,67.82
2019-05-20T13:17:45.781Z,67.99
2019-05-20T13:20:16.367Z,67.67
2019-05-20T13:22:45.701Z,68.25
2019-05-20T13:25:15.195Z,67.66
2019-05-20T13:27:44.506Z,67.63
2019-05-20T13:30:14.592Z,67.67
2019-05-20T13:32:43.930Z,67.53
2019-05-20T13:35:13.674Z,67.44
2019-05-20T13:37:43.033Z,67.73
2019-05-20T13:40:12.576Z,67.86
2019-05-20T13:42:41.885Z,68.04
2019-05-20T13:45:11.570Z,67.97
2019-05-20T13:47:40.913Z,67.94
2019-05-20T13:50:10.807Z,67.88
2019-05-20T13:52:40.146Z,67.86
2019-05-20T13:55:10.025Z,68.19
2019-05-20T13:57:39.800Z,68.42
2019-05-20T14:00:09.864Z,68.45
2019-05-20T14:02:39.213Z,68.39
2019-05-20T14:05:08.828Z,68.56
2019-05-20T14:07:38.418Z,69.05
2019-05-20T14:10:08.325Z,68.94
2019-05-20T14:12:37.743Z,68.81
2019-05-20T14:15:07.886Z,69.13
2019-05-20T14:17:37.236Z,69.05
2019-05-20T14:20:07.026Z,68.69
2019-05-20T14:22:36.445Z,68.62
2019-05-20T14:25:08.002Z,68.93
2019-05-20T14:27:37.343Z,68.57
2019-05-20T14:30:08.624Z,68.31
2019-05-20T14:32:37.962Z,68.59
2019-05-20T14:35:07.871Z,68.29
2019-05-20T14:37:37.218Z,68.37
2019-05-20T14:40:07.299Z,68.90
2019-05-20T14:42:36.644Z,67.87
2019-05-20T14:45:07.751Z,67.57
2019-05-20T14:47:37.092Z,67.80
2019-05-20T14:50:09.721Z,67.35
2019-05-20T14:52:39.053Z,66.98
2019-05-20T14:55:10.215Z,67.20
2019-05-20T14:57:39.986Z,67.21
2019-05-20T15:00:10.171Z,67.17
2019-05-20T15:02:39.515Z,67.29
2019-05-20T15:05:09.190Z,67.56
2019-05-20T15:07:38.847Z,68.01
2019-05-20T15:10:10.363Z,68.18
2019-05-20T15:12:39.699Z,68.18
2019-05-20T15:15:09.308Z,68.57
2019-05-20T15:17:38.655Z,68.47
2019-05-20T15:20:08.905Z,68.43
2019-05-20T15:22:38.466Z,68.61
2019-05-20T15:25:09.336Z,68.45
2019-05-20T15:27:38.660Z,68.70
2019-05-20T15:30:09.060Z,68.50
2019-05-20T15:32:38.394Z,69.04
2019-05-20T15:35:08.392Z,69.22
2019-05-20T15:37:38.698Z,69.25
2019-05-20T15:40:08.593Z,69.07
2019-05-20T15:42:38.003Z,69.21
2019-05-20T15:45:09.218Z,69.33
2019-05-20T15:47:38.634Z,69.42
2019-05-20T15:50:10.426Z,69.10
2019-05-20T15:52:39.911Z,69.07
2019-05-20T15:55:09.210Z,69.32
2019-05-20T15:57:38.598Z,69.68
2019-05-20T16:00:10.140Z,69.41
2019-05-20T16:02:39.717Z,69.51
2019-05-20T16:05:09.401Z,68.99
2019-05-20T16:07:38.746Z,69.07
2019-05-20T16:10:08.440Z,69.13
2019-05-20T16:12:37.789Z,68.80
2019-05-20T16:15:09.255Z,69.06
2019-05-20T16:17:38.600Z,68.62
2019-05-20T16:20:08.473Z,69.05
2019-05-20T16:22:37.818Z,68.58
2019-05-20T16:25:07.718Z,68.38
2019-05-20T16:27:38.228Z,68.61
2019-05-20T16:30:10.197Z,68.50
2019-05-20T16:32:39.693Z,68.81
2019-05-20T16:35:09.334Z,68.51
2019-05-20T16:37:39.351Z,68.39
2019-05-20T16:40:09.519Z,68.45
2019-05-20T16:42:39.317Z,68.40
2019-05-20T16:45:12.181Z,68.50
2019-05-20T16:47:42.861Z,68.51
2019-05-20T16:50:14.219Z,68.84
2019-05-20T16:52:43.566Z,68.58
2019-05-20T16:55:13.057Z,68.86
2019-05-20T16:57:42.441Z,68.54
2019-05-20T17:00:30.071Z,68.62
2019-05-20T17:02:45.056Z,68.46
2019-05-20T17:05:14.716Z,68.84
2019-05-20T17:07:44.145Z,68.93
2019-05-20T17:10:14.917Z,68.73
2019-05-20T17:12:44.258Z,68.51
2019-05-20T17:15:13.766Z,68.53
2019-05-20T17:17:43.120Z,68.62
2019-05-20T17:20:12.519Z,68.63
2019-05-20T17:22:41.853Z,68.87
2019-05-20T17:25:13.201Z,68.99
2019-05-20T17:27:42.539Z,68.89
2019-05-20T17:30:12.798Z,69.02
2019-05-20T17:32:42.143Z,69.16
2019-05-20T17:35:11.917Z,69.08
2019-05-20T17:37:41.545Z,69.40
2019-05-20T17:40:11.625Z,69.54
2019-05-20T17:42:41.045Z,69.82
2019-05-20T17:45:11.432Z,69.76
2019-05-20T17:47:40.787Z,69.66
2019-05-20T17:50:10.670Z,69.60
2019-05-20T17:52:40.097Z,69.74
2019-05-20T17:55:09.575Z,69.98
2019-05-20T17:57:38.967Z,70.04
2019-05-20T18:00:10.822Z,69.99
2019-05-20T18:02:40.318Z,70.18
2019-05-20T18:05:10.264Z,70.20
2019-05-20T18:07:39.615Z,70.17
2019-05-20T18:10:10.857Z,70.30
2019-05-20T18:12:40.262Z,70.39
2019-05-20T18:15:09.740Z,70.51
2019-05-20T18:17:39.082Z,70.39
2019-05-20T18:20:08.943Z,70.64
2019-05-20T18:22:38.431Z,70.88
2019-05-20T18:25:08.348Z,70.82
2019-05-20T18:27:38.497Z,71.07
2019-05-20T18:30:09.999Z,70.98
2019-05-20T18:32:39.358Z,71.16
2019-05-20T18:35:09.423Z,71.24
2019-05-20T18:37:38.772Z,71.15
2019-05-20T18:40:13.810Z,71.20
2019-05-20T18:42:39.890Z,71.64
2019-05-20T18:45:09.906Z,71.71
2019-05-20T18:47:39.262Z,72.00
2019-05-20T18:50:09.395Z,72.17
2019-05-20T18:52:39.751Z,72.33
2019-05-20T18:55:10.611Z,72.41
2019-05-20T18:57:39.970Z,72.56
2019-05-20T19:00:12.319Z,72.95
2019-05-20T19:02:43.288Z,73.07
2019-05-20T19:05:12.783Z,72.91
2019-05-20T19:07:43.701Z,73.19
2019-05-20T19:10:13.308Z,73.39
2019-05-20T19:12:42.718Z,73.10
2019-05-20T19:15:12.736Z,73.36
2019-05-20T19:17:42.090Z,73.72
2019-05-20T19:20:11.780Z,73.55
2019-05-20T19:22:41.179Z,73.84
2019-05-20T19:25:12.394Z,73.91
2019-05-20T19:27:41.737Z,73.84
2019-05-20T19:30:12.238Z,74.15
2019-05-20T19:32:41.592Z,74.40
2019-05-20T19:35:11.287Z,74.35
2019-05-20T19:37:41.549Z,74.29
2019-05-20T19:40:11.714Z,74.44
2019-05-20T19:42:42.431Z,74.42
2019-05-20T19:45:11.914Z,74.60
2019-05-20T19:47:41.741Z,74.86
2019-05-20T19:50:11.751Z,75.00
2019-05-20T19:52:41.109Z,75.04
2019-05-20T19:55:10.761Z,75.21
2019-05-20T19:57:40.182Z,75.22
2019-05-20T20:00:11.264Z,75.15
2019-05-20T20:02:40.668Z,75.39
2019-05-20T20:05:10.394Z,75.43
2019-05-20T20:07:39.725Z,75.29
2019-05-20T20:10:09.875Z,75.23
2019-05-20T20:12:39.452Z,75.58
2019-05-20T20:15:10.379Z,75.70
2019-05-20T20:17:39.738Z,75.86
2019-05-20T20:20:09.411Z,76.13
2019-05-20T20:22:38.752Z,75.79
2019-05-20T20:25:09.435Z,76.16
2019-05-20T20:27:38.784Z,75.97
2019-05-20T20:30:10.084Z,76.06
2019-05-20T20:32:39.452Z,76.48
2019-05-20T20:35:08.928Z,76.47
2019-05-20T20:37:38.337Z,76.40
2019-05-20T20:40:07.919Z,76.38
2019-05-20T20:42:37.523Z,76.50
2019-05-20T20:45:07.107Z,76.38
2019-05-20T20:47:41.948Z,76.57
2019-05-20T20:50:07.981Z,76.50
2019-05-20T20:52:37.589Z,76.86
2019-05-20T20:55:07.783Z,76.50
2019-05-20T20:57:37.188Z,76.97
2019-05-20T21:00:09.125Z,77.33
2019-05-20T21:02:52.235Z,77.05
2019-05-20T21:05:09.717Z,77.08
2019-05-20T21:07:39.156Z,77.15
2019-05-20T21:10:08.915Z,77.48
2019-05-20T21:12:38.258Z,77.45
2019-05-20T21:15:07.932Z,78.54
2019-05-20T21:17:37.274Z,78.55
2019-05-20T21:20:07.554Z,78.26
2019-05-20T21:22:36.972Z,77.73
2019-05-20T21:25:07.449Z,77.79
2019-05-20T21:27:36.803Z,77.47
2019-05-20T21:30:07.614Z,77.12
2019-05-20T21:32:36.961Z,77.08
2019-05-20T21:35:06.631Z,76.86
2019-05-20T21:37:35.973Z,76.62
2019-05-20T21:40:05.947Z,76.57
2019-05-20T21:42:35.299Z,76.43
2019-05-20T21:45:06.681Z,76.42
2019-05-20T21:47:36.028Z,76.31
2019-05-20T21:50:06.879Z,76.45
2019-05-20T21:52:36.223Z,76.42
2019-05-20T21:55:07.397Z,76.42
2019-05-20T21:57:36.742Z,76.58
2019-05-20T22:00:11.067Z,76.78
2019-05-20T22:02:42.025Z,77.17
2019-05-20T22:05:11.668Z,77.34
2019-05-20T22:07:41.012Z,78.09
2019-05-20T22:10:10.625Z,78.08
2019-05-20T22:12:39.960Z,78.44
2019-05-20T22:15:09.540Z,78.68
2019-05-20T22:17:38.952Z,78.36
2019-05-20T22:20:08.443Z,78.59
2019-05-20T22:22:42.146Z,79.17
2019-05-20T22:25:10.775Z,79.68
2019-05-20T22:27:40.061Z,80.83
2019-05-20T22:30:10.148Z,81.39
2019-05-20T22:32:39.562Z,82.19
2019-05-20T22:35:09.251Z,82.14
2019-05-20T22:37:38.842Z,82.32
2019-05-20T22:40:08.388Z,82.46
2019-05-20T22:42:37.727Z,83.04
2019-05-20T22:45:07.483Z,83.09
2019-05-20T22:47:36.849Z,83.08
2019-05-20T22:50:06.417Z,83.61
2019-05-20T22:52:35.728Z,83.51
2019-05-20T22:55:05.811Z,83.61
2019-05-20T22:57:35.163Z,84.23
2019-05-20T23:00:05.846Z,84.10
2019-05-20T23:02:36.801Z,83.89
2019-05-20T23:05:06.223Z,83.95
2019-05-20T23:07:35.565Z,83.97
2019-05-20T23:10:07.423Z,84.62
2019-05-20T23:12:36.766Z,85.01
2019-05-20T23:15:07.355Z,85.75
2019-05-20T23:17:36.703Z,85.87
2019-05-20T23:20:07.068Z,85.90
2019-05-20T23:22:36.403Z,86.06
2019-05-20T23:25:06.086Z,85.87
2019-05-20T23:27:35.504Z,86.35
2019-05-20T23:30:06.880Z,86.49
2019-05-20T23:32:36.222Z,86.31
2019-05-20T23:35:07.320Z,86.69
2019-05-20T23:37:36.661Z,86.53
2019-05-20T23:40:07.165Z,86.82
2019-05-20T23:42:36.494Z,87.26
2019-05-20T23:45:07.476Z,87.33
2019-05-20T23:47:37.781Z,87.10
2019-05-20T23:50:07.664Z,87.26
2019-05-20T23:52:37.014Z,87.40
2019-05-20T23:55:08.263Z,87.68
2019-05-20T23:57:37.606Z,87.94
